This is the latest recevied weather packets stored in our database for station/object WD7OO. If no packets are shown the sender has not sent any weather packets the latest 10 day(s).
| Time | Temp. | Humidity | Pressure | Rain* | Wind** | Luminosity | Snow |
|---|---|---|---|---|---|---|---|
| 1778199905 | 10° C | 86% | 1012.6 hPa | 6.1 mm | - | 2 W/m² | - |
| 1778199603 | 10.56° C | 80% | 1012.4 hPa | 3.05 mm | - | 1 W/m² | - |
| 1778199299 | 11.11° C | 77% | 1012.1 hPa | 1.78 mm | - | 0 W/m² | - |
| 1778198996 | 11.67° C | 69% | 1011.9 hPa | 0 mm | - | 0 W/m² | - |
| 1778198691 | 11.67° C | 65% | 1011.7 hPa | 0 mm | - | 1 W/m² | - |
| 1778198388 | 11.67° C | 65% | 1011.7 hPa | 0 mm | - | 6 W/m² | - |
| 1778198085 | 11.67° C | 63% | 1011.6 hPa | 0 mm | - | 7 W/m² | - |
| 1778197783 | 12.22° C | 64% | 1011.7 hPa | 0 mm | - | 11 W/m² | - |
| 1778197479 | 12.22° C | 64% | 1011.8 hPa | 0 mm | - | 18 W/m² | - |
| 1778197176 | 12.22° C | 63% | 1011.6 hPa | 0 mm | - | 24 W/m² | - |
| 1778196873 | 12.22° C | 63% | 1011.6 hPa | 0 mm | - | 58 W/m² | - |
| 1778196571 | 12.22° C | 62% | 1011.9 hPa | 0 mm | - | 45 W/m² | - |
| 1778196267 | 12.22° C | 61% | 1012 hPa | 0 mm | - | 42 W/m² | - |
| 1778195965 | 12.78° C | 62% | 1011.9 hPa | 0 mm | - | 49 W/m² | - |
| 1778195661 | 12.78° C | 60% | 1012 hPa | 0 mm | - | 56 W/m² | - |
| 1778195357 | 13.33° C | 58% | 1011.8 hPa | 0 mm | - | 87 W/m² | - |
| 1778195055 | 13.33° C | 56% | 1011.9 hPa | 0 mm | - | 125 W/m² | - |
| 1778194755 | 13.33° C | 58% | 1012 hPa | 0 mm | - | 147 W/m² | - |
| 1778194451 | 13.33° C | 58% | 1012 hPa | 0 mm | - | 117 W/m² | - |
| 1778194147 | 13.33° C | 61% | 1012 hPa | 0 mm | - | 128 W/m² | - |
| 1778193843 | 12.78° C | 59% | 1011.8 hPa | 0 mm | - | 157 W/m² | - |
| 1778193540 | 12.78° C | 60% | 1011.9 hPa | 0 mm | - | 125 W/m² | - |
| 1778193231 | 12.78° C | 60% | 1011.9 hPa | 0 mm | - | 101 W/m² | - |
| 1778192928 | 12.78° C | 60% | 1012.2 hPa | 0 mm | - | 81 W/m² | - |
| 1778192624 | 12.78° C | 59% | 1012.1 hPa | 0 mm | - | 95 W/m² | - |
* Rain latest hour (hover to see other rain measurements)
** Current wind speed in m/s (hover to see current wind gust speed)